sensor_id;sensor_type;location;lat;lon;timestamp;P1;durP1;ratioP1;P2;durP2;ratioP2
22359;SDS011;11347;52.030;4.690;2022-07-24T00:00:48;4.93;;;2.60;;
22359;SDS011;11347;52.030;4.690;2022-07-24T00:03:14;4.17;;;2.33;;
22359;SDS011;11347;52.030;4.690;2022-07-24T00:05:39;4.30;;;2.80;;
22359;SDS011;11347;52.030;4.690;2022-07-24T00:08:05;3.63;;;2.50;;
22359;SDS011;11347;52.030;4.690;2022-07-24T00:10:31;4.00;;;2.60;;
22359;SDS011;11347;52.030;4.690;2022-07-24T00:12:56;5.10;;;2.60;;
22359;SDS011;11347;52.030;4.690;2022-07-24T00:15:22;3.03;;;2.50;;
22359;SDS011;11347;52.030;4.690;2022-07-24T00:17:48;5.50;;;2.93;;
22359;SDS011;11347;52.030;4.690;2022-07-24T00:20:13;5.37;;;2.83;;
22359;SDS011;11347;52.030;4.690;2022-07-24T00:22:39;5.40;;;2.77;;
22359;SDS011;11347;52.030;4.690;2022-07-24T00:25:05;5.53;;;2.90;;
22359;SDS011;11347;52.030;4.690;2022-07-24T00:27:30;4.00;;;3.00;;
22359;SDS011;11347;52.030;4.690;2022-07-24T00:29:56;4.87;;;2.90;;
22359;SDS011;11347;52.030;4.690;2022-07-24T00:32:21;4.63;;;2.90;;
22359;SDS011;11347;52.030;4.690;2022-07-24T00:34:47;4.07;;;2.73;;
22359;SDS011;11347;52.030;4.690;2022-07-24T00:37:12;4.70;;;2.87;;
22359;SDS011;11347;52.030;4.690;2022-07-24T00:39:38;3.90;;;3.03;;
22359;SDS011;11347;52.030;4.690;2022-07-24T00:42:04;4.20;;;3.00;;
22359;SDS011;11347;52.030;4.690;2022-07-24T00:44:29;5.30;;;3.33;;
22359;SDS011;11347;52.030;4.690;2022-07-24T00:46:55;4.80;;;3.50;;
22359;SDS011;11347;52.030;4.690;2022-07-24T00:49:21;5.13;;;3.13;;
22359;SDS011;11347;52.030;4.690;2022-07-24T00:51:48;3.90;;;3.00;;
22359;SDS011;11347;52.030;4.690;2022-07-24T00:54:16;4.90;;;3.20;;
22359;SDS011;11347;52.030;4.690;2022-07-24T00:56:43;4.83;;;3.30;;
22359;SDS011;11347;52.030;4.690;2022-07-24T00:59:10;6.03;;;3.40;;
22359;SDS011;11347;52.030;4.690;2022-07-24T01:01:36;5.43;;;3.50;;
22359;SDS011;11347;52.030;4.690;2022-07-24T01:04:02;4.73;;;3.20;;
22359;SDS011;11347;52.030;4.690;2022-07-24T01:06:28;4.90;;;3.53;;
22359;SDS011;11347;52.030;4.690;2022-07-24T01:08:54;6.07;;;4.03;;
22359;SDS011;11347;52.030;4.690;2022-07-24T01:11:20;8.97;;;3.73;;
22359;SDS011;11347;52.030;4.690;2022-07-24T01:13:47;5.47;;;3.70;;
22359;SDS011;11347;52.030;4.690;2022-07-24T01:16:14;6.83;;;3.53;;
22359;SDS011;11347;52.030;4.690;2022-07-24T01:18:40;9.03;;;4.60;;
22359;SDS011;11347;52.030;4.690;2022-07-24T01:21:05;4.90;;;3.70;;
22359;SDS011;11347;52.030;4.690;2022-07-24T01:23:31;6.10;;;3.87;;
22359;SDS011;11347;52.030;4.690;2022-07-24T01:25:57;5.07;;;3.90;;
22359;SDS011;11347;52.030;4.690;2022-07-24T01:28:23;5.80;;;4.03;;
22359;SDS011;11347;52.030;4.690;2022-07-24T01:30:49;6.57;;;4.27;;
22359;SDS011;11347;52.030;4.690;2022-07-24T01:33:15;7.30;;;4.50;;
22359;SDS011;11347;52.030;4.690;2022-07-24T01:35:41;6.60;;;4.60;;
22359;SDS011;11347;52.030;4.690;2022-07-24T01:38:07;7.80;;;4.80;;
22359;SDS011;11347;52.030;4.690;2022-07-24T01:40:34;8.27;;;4.50;;
22359;SDS011;11347;52.030;4.690;2022-07-24T01:43:00;6.83;;;4.30;;
22359;SDS011;11347;52.030;4.690;2022-07-24T01:45:26;6.93;;;4.70;;
22359;SDS011;11347;52.030;4.690;2022-07-24T01:47:51;6.63;;;4.53;;
22359;SDS011;11347;52.030;4.690;2022-07-24T01:50:17;6.97;;;4.67;;
22359;SDS011;11347;52.030;4.690;2022-07-24T01:52:43;6.07;;;4.50;;
22359;SDS011;11347;52.030;4.690;2022-07-24T01:55:08;6.73;;;4.70;;
22359;SDS011;11347;52.030;4.690;2022-07-24T01:57:34;8.57;;;5.03;;
22359;SDS011;11347;52.030;4.690;2022-07-24T02:00:00;7.37;;;5.03;;
22359;SDS011;11347;52.030;4.690;2022-07-24T02:02:28;7.67;;;5.10;;
22359;SDS011;11347;52.030;4.690;2022-07-24T02:04:53;6.47;;;4.83;;
22359;SDS011;11347;52.030;4.690;2022-07-24T02:07:19;7.77;;;4.30;;
22359;SDS011;11347;52.030;4.690;2022-07-24T02:09:44;9.30;;;5.03;;
22359;SDS011;11347;52.030;4.690;2022-07-24T02:12:10;7.13;;;4.70;;
22359;SDS011;11347;52.030;4.690;2022-07-24T02:14:36;7.20;;;4.80;;
22359;SDS011;11347;52.030;4.690;2022-07-24T02:17:02;6.00;;;4.30;;
22359;SDS011;11347;52.030;4.690;2022-07-24T02:19:28;7.97;;;5.03;;
22359;SDS011;11347;52.030;4.690;2022-07-24T02:21:54;7.23;;;5.17;;
22359;SDS011;11347;52.030;4.690;2022-07-24T02:24:20;10.00;;;4.87;;
22359;SDS011;11347;52.030;4.690;2022-07-24T02:26:47;8.73;;;4.80;;
22359;SDS011;11347;52.030;4.690;2022-07-24T02:29:12;8.57;;;5.13;;
22359;SDS011;11347;52.030;4.690;2022-07-24T02:31:38;7.27;;;4.77;;
22359;SDS011;11347;52.030;4.690;2022-07-24T02:34:03;6.60;;;4.53;;
22359;SDS011;11347;52.030;4.690;2022-07-24T02:36:29;9.03;;;4.77;;
22359;SDS011;11347;52.030;4.690;2022-07-24T02:38:54;9.80;;;4.80;;
22359;SDS011;11347;52.030;4.690;2022-07-24T02:41:20;15.90;;;4.50;;
22359;SDS011;11347;52.030;4.690;2022-07-24T02:43:46;8.03;;;4.70;;
22359;SDS011;11347;52.030;4.690;2022-07-24T02:46:11;7.47;;;4.50;;
22359;SDS011;11347;52.030;4.690;2022-07-24T02:48:37;8.37;;;4.43;;
22359;SDS011;11347;52.030;4.690;2022-07-24T02:51:02;6.57;;;4.00;;
22359;SDS011;11347;52.030;4.690;2022-07-24T02:53:29;7.77;;;3.60;;
22359;SDS011;11347;52.030;4.690;2022-07-24T02:55:55;7.63;;;4.30;;
22359;SDS011;11347;52.030;4.690;2022-07-24T02:58:20;7.67;;;4.20;;
22359;SDS011;11347;52.030;4.690;2022-07-24T03:00:46;7.50;;;3.80;;
22359;SDS011;11347;52.030;4.690;2022-07-24T03:03:11;7.10;;;4.27;;
22359;SDS011;11347;52.030;4.690;2022-07-24T03:05:37;6.63;;;3.90;;
22359;SDS011;11347;52.030;4.690;2022-07-24T03:08:03;10.00;;;4.20;;
22359;SDS011;11347;52.030;4.690;2022-07-24T03:10:29;6.27;;;3.70;;
22359;SDS011;11347;52.030;4.690;2022-07-24T03:12:54;8.13;;;4.00;;
22359;SDS011;11347;52.030;4.690;2022-07-24T03:15:20;9.07;;;3.83;;
22359;SDS011;11347;52.030;4.690;2022-07-24T03:17:49;5.03;;;3.60;;
22359;SDS011;11347;52.030;4.690;2022-07-24T03:20:16;5.63;;;3.80;;
22359;SDS011;11347;52.030;4.690;2022-07-24T03:22:43;6.40;;;3.60;;
22359;SDS011;11347;52.030;4.690;2022-07-24T03:25:09;6.00;;;3.43;;
22359;SDS011;11347;52.030;4.690;2022-07-24T03:27:35;9.37;;;3.17;;
22359;SDS011;11347;52.030;4.690;2022-07-24T03:30:00;8.80;;;4.13;;
22359;SDS011;11347;52.030;4.690;2022-07-24T03:32:26;8.90;;;3.43;;
22359;SDS011;11347;52.030;4.690;2022-07-24T03:34:51;7.27;;;3.13;;
22359;SDS011;11347;52.030;4.690;2022-07-24T03:37:17;6.63;;;3.30;;
22359;SDS011;11347;52.030;4.690;2022-07-24T03:39:42;7.17;;;3.20;;
22359;SDS011;11347;52.030;4.690;2022-07-24T03:42:08;5.43;;;3.20;;
22359;SDS011;11347;52.030;4.690;2022-07-24T03:44:34;7.63;;;3.13;;
22359;SDS011;11347;52.030;4.690;2022-07-24T03:46:59;7.57;;;4.00;;
22359;SDS011;11347;52.030;4.690;2022-07-24T03:49:25;9.27;;;3.40;;
22359;SDS011;11347;52.030;4.690;2022-07-24T03:51:50;5.30;;;2.70;;
22359;SDS011;11347;52.030;4.690;2022-07-24T03:54:16;6.23;;;3.10;;
22359;SDS011;11347;52.030;4.690;2022-07-24T03:56:42;6.33;;;3.10;;
22359;SDS011;11347;52.030;4.690;2022-07-24T03:59:07;5.63;;;3.23;;
22359;SDS011;11347;52.030;4.690;2022-07-24T04:01:33;5.23;;;2.80;;
22359;SDS011;11347;52.030;4.690;2022-07-24T04:03:58;6.37;;;2.80;;
22359;SDS011;11347;52.030;4.690;2022-07-24T04:06:29;5.70;;;2.70;;
22359;SDS011;11347;52.030;4.690;2022-07-24T04:08:56;4.97;;;2.80;;
22359;SDS011;11347;52.030;4.690;2022-07-24T04:11:21;5.40;;;2.63;;
22359;SDS011;11347;52.030;4.690;2022-07-24T04:13:47;5.80;;;2.90;;
22359;SDS011;11347;52.030;4.690;2022-07-24T04:16:12;4.57;;;2.50;;
22359;SDS011;11347;52.030;4.690;2022-07-24T04:18:38;4.93;;;2.67;;
22359;SDS011;11347;52.030;4.690;2022-07-24T04:21:04;3.87;;;2.27;;
22359;SDS011;11347;52.030;4.690;2022-07-24T04:23:29;3.77;;;2.30;;
22359;SDS011;11347;52.030;4.690;2022-07-24T04:25:55;5.77;;;2.70;;
22359;SDS011;11347;52.030;4.690;2022-07-24T04:28:20;4.17;;;2.40;;
22359;SDS011;11347;52.030;4.690;2022-07-24T04:30:46;3.90;;;2.47;;
22359;SDS011;11347;52.030;4.690;2022-07-24T04:33:12;4.77;;;2.40;;
22359;SDS011;11347;52.030;4.690;2022-07-24T04:35:37;4.17;;;2.70;;
22359;SDS011;11347;52.030;4.690;2022-07-24T04:38:03;4.50;;;2.30;;
22359;SDS011;11347;52.030;4.690;2022-07-24T04:40:28;4.27;;;2.40;;
22359;SDS011;11347;52.030;4.690;2022-07-24T04:42:54;4.13;;;2.00;;
22359;SDS011;11347;52.030;4.690;2022-07-24T04:45:19;3.63;;;2.20;;
22359;SDS011;11347;52.030;4.690;2022-07-24T04:47:45;4.47;;;2.27;;
22359;SDS011;11347;52.030;4.690;2022-07-24T04:50:11;4.33;;;2.43;;
22359;SDS011;11347;52.030;4.690;2022-07-24T04:52:36;3.40;;;2.20;;
22359;SDS011;11347;52.030;4.690;2022-07-24T04:55:02;4.23;;;2.43;;
22359;SDS011;11347;52.030;4.690;2022-07-24T04:57:28;3.87;;;2.30;;
22359;SDS011;11347;52.030;4.690;2022-07-24T04:59:54;4.60;;;2.40;;
22359;SDS011;11347;52.030;4.690;2022-07-24T05:02:19;4.80;;;2.53;;
22359;SDS011;11347;52.030;4.690;2022-07-24T05:04:45;4.30;;;2.47;;
22359;SDS011;11347;52.030;4.690;2022-07-24T05:07:10;3.63;;;2.30;;
22359;SDS011;11347;52.030;4.690;2022-07-24T05:09:36;5.53;;;2.20;;
22359;SDS011;11347;52.030;4.690;2022-07-24T05:12:01;4.67;;;2.40;;
22359;SDS011;11347;52.030;4.690;2022-07-24T05:14:27;4.27;;;2.60;;
22359;SDS011;11347;52.030;4.690;2022-07-24T05:16:53;4.30;;;2.70;;
22359;SDS011;11347;52.030;4.690;2022-07-24T05:19:19;5.00;;;2.53;;
22359;SDS011;11347;52.030;4.690;2022-07-24T05:21:44;7.83;;;2.83;;
22359;SDS011;11347;52.030;4.690;2022-07-24T05:24:10;5.77;;;3.47;;
22359;SDS011;11347;52.030;4.690;2022-07-24T05:26:35;5.80;;;3.07;;
22359;SDS011;11347;52.030;4.690;2022-07-24T05:29:02;9.00;;;3.30;;
22359;SDS011;11347;52.030;4.690;2022-07-24T05:31:31;5.90;;;3.03;;
22359;SDS011;11347;52.030;4.690;2022-07-24T05:33:56;6.00;;;3.17;;
22359;SDS011;11347;52.030;4.690;2022-07-24T05:36:23;5.53;;;3.20;;
22359;SDS011;11347;52.030;4.690;2022-07-24T05:38:49;6.80;;;3.50;;
22359;SDS011;11347;52.030;4.690;2022-07-24T05:41:15;4.73;;;3.00;;
22359;SDS011;11347;52.030;4.690;2022-07-24T05:43:41;4.90;;;3.27;;
22359;SDS011;11347;52.030;4.690;2022-07-24T05:46:07;6.83;;;3.17;;
22359;SDS011;11347;52.030;4.690;2022-07-24T05:48:33;6.47;;;3.27;;
22359;SDS011;11347;52.030;4.690;2022-07-24T05:50:59;5.57;;;2.97;;
22359;SDS011;11347;52.030;4.690;2022-07-24T05:53:24;5.13;;;2.83;;
22359;SDS011;11347;52.030;4.690;2022-07-24T05:55:50;5.10;;;2.63;;
22359;SDS011;11347;52.030;4.690;2022-07-24T05:58:16;5.20;;;2.50;;
22359;SDS011;11347;52.030;4.690;2022-07-24T06:00:42;4.20;;;2.50;;
22359;SDS011;11347;52.030;4.690;2022-07-24T06:03:08;7.67;;;2.80;;
22359;SDS011;11347;52.030;4.690;2022-07-24T06:05:34;5.03;;;2.90;;
22359;SDS011;11347;52.030;4.690;2022-07-24T06:08:00;5.30;;;2.40;;
22359;SDS011;11347;52.030;4.690;2022-07-24T06:10:25;3.20;;;2.00;;
22359;SDS011;11347;52.030;4.690;2022-07-24T06:12:51;5.27;;;2.10;;
22359;SDS011;11347;52.030;4.690;2022-07-24T06:15:17;5.87;;;2.70;;
22359;SDS011;11347;52.030;4.690;2022-07-24T06:17:42;5.67;;;2.30;;
22359;SDS011;11347;52.030;4.690;2022-07-24T06:20:09;4.33;;;2.17;;
22359;SDS011;11347;52.030;4.690;2022-07-24T06:22:37;3.90;;;2.10;;
22359;SDS011;11347;52.030;4.690;2022-07-24T06:25:05;4.63;;;2.10;;
22359;SDS011;11347;52.030;4.690;2022-07-24T06:27:31;3.77;;;1.87;;
22359;SDS011;11347;52.030;4.690;2022-07-24T06:29:56;5.33;;;1.83;;
22359;SDS011;11347;52.030;4.690;2022-07-24T06:32:22;3.67;;;1.90;;
22359;SDS011;11347;52.030;4.690;2022-07-24T06:34:47;2.60;;;1.80;;
22359;SDS011;11347;52.030;4.690;2022-07-24T06:37:13;4.07;;;1.87;;
22359;SDS011;11347;52.030;4.690;2022-07-24T06:39:39;2.47;;;1.70;;
22359;SDS011;11347;52.030;4.690;2022-07-24T06:42:05;6.40;;;2.23;;
22359;SDS011;11347;52.030;4.690;2022-07-24T06:44:30;4.30;;;1.80;;
22359;SDS011;11347;52.030;4.690;2022-07-24T06:46:58;4.20;;;1.83;;
22359;SDS011;11347;52.030;4.690;2022-07-24T06:49:24;4.37;;;1.90;;
22359;SDS011;11347;52.030;4.690;2022-07-24T06:51:50;3.10;;;1.80;;
22359;SDS011;11347;52.030;4.690;2022-07-24T06:54:15;2.57;;;1.80;;
22359;SDS011;11347;52.030;4.690;2022-07-24T06:56:41;3.20;;;1.60;;
22359;SDS011;11347;52.030;4.690;2022-07-24T06:59:06;3.40;;;1.90;;
22359;SDS011;11347;52.030;4.690;2022-07-24T07:01:32;2.27;;;1.53;;
22359;SDS011;11347;52.030;4.690;2022-07-24T07:03:58;2.37;;;1.57;;
22359;SDS011;11347;52.030;4.690;2022-07-24T07:06:23;2.50;;;1.80;;
22359;SDS011;11347;52.030;4.690;2022-07-24T07:08:49;2.57;;;1.60;;
22359;SDS011;11347;52.030;4.690;2022-07-24T07:11:14;3.87;;;1.80;;
22359;SDS011;11347;52.030;4.690;2022-07-24T07:13:40;3.47;;;1.80;;
22359;SDS011;11347;52.030;4.690;2022-07-24T07:16:06;3.47;;;1.70;;
22359;SDS011;11347;52.030;4.690;2022-07-24T07:18:31;3.93;;;1.80;;
22359;SDS011;11347;52.030;4.690;2022-07-24T07:20:57;3.27;;;1.80;;
22359;SDS011;11347;52.030;4.690;2022-07-24T07:23:23;2.83;;;1.80;;
22359;SDS011;11347;52.030;4.690;2022-07-24T07:25:51;2.53;;;1.60;;
22359;SDS011;11347;52.030;4.690;2022-07-24T07:28:18;2.07;;;1.50;;
22359;SDS011;11347;52.030;4.690;2022-07-24T07:30:44;3.27;;;1.80;;
22359;SDS011;11347;52.030;4.690;2022-07-24T07:33:10;3.13;;;1.50;;
22359;SDS011;11347;52.030;4.690;2022-07-24T07:35:35;3.60;;;1.60;;
22359;SDS011;11347;52.030;4.690;2022-07-24T07:38:01;3.10;;;1.50;;
22359;SDS011;11347;52.030;4.690;2022-07-24T07:40:27;3.27;;;1.50;;
22359;SDS011;11347;52.030;4.690;2022-07-24T07:42:52;2.10;;;1.50;;
22359;SDS011;11347;52.030;4.690;2022-07-24T07:45:18;2.77;;;1.50;;
22359;SDS011;11347;52.030;4.690;2022-07-24T07:47:44;5.70;;;1.63;;
22359;SDS011;11347;52.030;4.690;2022-07-24T07:50:09;2.47;;;1.63;;
22359;SDS011;11347;52.030;4.690;2022-07-24T07:52:36;3.17;;;1.70;;
22359;SDS011;11347;52.030;4.690;2022-07-24T07:55:02;1.97;;;1.43;;
22359;SDS011;11347;52.030;4.690;2022-07-24T07:57:28;4.00;;;1.70;;
22359;SDS011;11347;52.030;4.690;2022-07-24T07:59:54;4.67;;;1.70;;
22359;SDS011;11347;52.030;4.690;2022-07-24T08:02:19;2.73;;;1.70;;
22359;SDS011;11347;52.030;4.690;2022-07-24T08:04:45;3.63;;;1.60;;
22359;SDS011;11347;52.030;4.690;2022-07-24T08:07:10;2.47;;;1.40;;
22359;SDS011;11347;52.030;4.690;2022-07-24T08:09:36;3.70;;;1.60;;
22359;SDS011;11347;52.030;4.690;2022-07-24T08:12:02;2.83;;;1.77;;
22359;SDS011;11347;52.030;4.690;2022-07-24T08:14:29;2.93;;;1.60;;
22359;SDS011;11347;52.030;4.690;2022-07-24T08:16:55;2.83;;;1.60;;
22359;SDS011;11347;52.030;4.690;2022-07-24T08:19:20;1.90;;;1.50;;
22359;SDS011;11347;52.030;4.690;2022-07-24T08:21:46;3.70;;;1.50;;
22359;SDS011;11347;52.030;4.690;2022-07-24T08:24:11;2.07;;;1.30;;
22359;SDS011;11347;52.030;4.690;2022-07-24T08:26:37;2.43;;;1.40;;
22359;SDS011;11347;52.030;4.690;2022-07-24T08:29:03;2.23;;;1.80;;
22359;SDS011;11347;52.030;4.690;2022-07-24T08:31:29;2.53;;;1.60;;
22359;SDS011;11347;52.030;4.690;2022-07-24T08:33:55;3.30;;;1.70;;
22359;SDS011;11347;52.030;4.690;2022-07-24T08:36:21;3.73;;;1.90;;
22359;SDS011;11347;52.030;4.690;2022-07-24T08:38:47;3.43;;;1.70;;
22359;SDS011;11347;52.030;4.690;2022-07-24T08:41:13;3.20;;;1.90;;
22359;SDS011;11347;52.030;4.690;2022-07-24T08:43:38;3.43;;;1.70;;
22359;SDS011;11347;52.030;4.690;2022-07-24T08:46:04;2.13;;;1.60;;
22359;SDS011;11347;52.030;4.690;2022-07-24T08:48:33;4.00;;;1.80;;
22359;SDS011;11347;52.030;4.690;2022-07-24T08:50:59;4.83;;;1.80;;
22359;SDS011;11347;52.030;4.690;2022-07-24T08:53:26;3.17;;;1.60;;
22359;SDS011;11347;52.030;4.690;2022-07-24T08:55:51;2.87;;;1.70;;
22359;SDS011;11347;52.030;4.690;2022-07-24T08:58:17;4.50;;;1.70;;
22359;SDS011;11347;52.030;4.690;2022-07-24T09:00:43;2.63;;;1.73;;
22359;SDS011;11347;52.030;4.690;2022-07-24T09:03:10;3.77;;;1.77;;
22359;SDS011;11347;52.030;4.690;2022-07-24T09:05:53;6.40;;;1.90;;
22359;SDS011;11347;52.030;4.690;2022-07-24T09:08:19;3.77;;;1.87;;
22359;SDS011;11347;52.030;4.690;2022-07-24T09:10:55;2.77;;;1.70;;
22359;SDS011;11347;52.030;4.690;2022-07-24T09:13:24;2.77;;;1.90;;
22359;SDS011;11347;52.030;4.690;2022-07-24T09:15:51;3.80;;;1.80;;
22359;SDS011;11347;52.030;4.690;2022-07-24T09:18:27;1.93;;;1.60;;
22359;SDS011;11347;52.030;4.690;2022-07-24T09:20:55;3.00;;;1.80;;
22359;SDS011;11347;52.030;4.690;2022-07-24T09:23:22;3.03;;;1.90;;
22359;SDS011;11347;52.030;4.690;2022-07-24T09:25:49;4.90;;;1.80;;
22359;SDS011;11347;52.030;4.690;2022-07-24T09:28:19;2.60;;;1.90;;
22359;SDS011;11347;52.030;4.690;2022-07-24T09:30:46;3.83;;;2.03;;
22359;SDS011;11347;52.030;4.690;2022-07-24T09:35:44;3.93;;;1.70;;
22359;SDS011;11347;52.030;4.690;2022-07-24T09:38:12;3.23;;;1.60;;
22359;SDS011;11347;52.030;4.690;2022-07-24T09:40:41;3.40;;;1.80;;
22359;SDS011;11347;52.030;4.690;2022-07-24T09:43:16;2.70;;;1.93;;
22359;SDS011;11347;52.030;4.690;2022-07-24T09:48:23;3.43;;;1.80;;
22359;SDS011;11347;52.030;4.690;2022-07-24T09:51:10;2.37;;;1.50;;
22359;SDS011;11347;52.030;4.690;2022-07-24T09:53:39;3.03;;;1.70;;
22359;SDS011;11347;52.030;4.690;2022-07-24T09:56:07;3.90;;;1.70;;
22359;SDS011;11347;52.030;4.690;2022-07-24T10:01:11;2.63;;;1.60;;
22359;SDS011;11347;52.030;4.690;2022-07-24T10:03:39;4.13;;;2.00;;
22359;SDS011;11347;52.030;4.690;2022-07-24T10:06:08;2.80;;;1.60;;
22359;SDS011;11347;52.030;4.690;2022-07-24T10:08:39;1.83;;;1.50;;
22359;SDS011;11347;52.030;4.690;2022-07-24T10:11:07;2.83;;;1.90;;
22359;SDS011;11347;52.030;4.690;2022-07-24T10:13:33;4.17;;;1.80;;
22359;SDS011;11347;52.030;4.690;2022-07-24T10:18:47;8.40;;;1.87;;
22359;SDS011;11347;52.030;4.690;2022-07-24T10:21:30;9.10;;;1.77;;
22359;SDS011;11347;52.030;4.690;2022-07-24T10:29:06;3.70;;;1.63;;
22359;SDS011;11347;52.030;4.690;2022-07-24T10:31:42;3.87;;;1.70;;
22359;SDS011;11347;52.030;4.690;2022-07-24T10:34:19;3.13;;;1.80;;
22359;SDS011;11347;52.030;4.690;2022-07-24T10:42:28;4.30;;;1.73;;
22359;SDS011;11347;52.030;4.690;2022-07-24T10:47:42;2.43;;;1.40;;
22359;SDS011;11347;52.030;4.690;2022-07-24T10:50:08;2.70;;;1.50;;
22359;SDS011;11347;52.030;4.690;2022-07-24T10:52:34;5.20;;;1.60;;
22359;SDS011;11347;52.030;4.690;2022-07-24T10:57:54;3.30;;;1.50;;
22359;SDS011;11347;52.030;4.690;2022-07-24T11:00:38;4.13;;;1.77;;
22359;SDS011;11347;52.030;4.690;2022-07-24T11:03:06;2.37;;;1.50;;
22359;SDS011;11347;52.030;4.690;2022-07-24T11:05:42;3.07;;;1.57;;
22359;SDS011;11347;52.030;4.690;2022-07-24T11:10:47;2.97;;;1.60;;
22359;SDS011;11347;52.030;4.690;2022-07-24T11:18:36;3.43;;;1.80;;
22359;SDS011;11347;52.030;4.690;2022-07-24T11:21:02;2.67;;;1.57;;
22359;SDS011;11347;52.030;4.690;2022-07-24T11:23:29;3.63;;;1.60;;
22359;SDS011;11347;52.030;4.690;2022-07-24T11:29:12;4.93;;;1.57;;
22359;SDS011;11347;52.030;4.690;2022-07-24T11:31:38;2.30;;;1.50;;
22359;SDS011;11347;52.030;4.690;2022-07-24T11:34:05;3.00;;;1.93;;
22359;SDS011;11347;52.030;4.690;2022-07-24T11:36:34;3.20;;;1.60;;
22359;SDS011;11347;52.030;4.690;2022-07-24T11:39:01;2.60;;;1.83;;
22359;SDS011;11347;52.030;4.690;2022-07-24T11:41:28;4.23;;;1.70;;
22359;SDS011;11347;52.030;4.690;2022-07-24T11:44:07;3.33;;;1.60;;
22359;SDS011;11347;52.030;4.690;2022-07-24T11:46:36;3.77;;;1.80;;
22359;SDS011;11347;52.030;4.690;2022-07-24T11:49:04;4.60;;;1.90;;
22359;SDS011;11347;52.030;4.690;2022-07-24T11:51:31;2.70;;;1.70;;
22359;SDS011;11347;52.030;4.690;2022-07-24T11:53:57;2.43;;;1.60;;
22359;SDS011;11347;52.030;4.690;2022-07-24T11:56:23;2.27;;;1.60;;
22359;SDS011;11347;52.030;4.690;2022-07-24T11:58:49;4.10;;;1.70;;
22359;SDS011;11347;52.030;4.690;2022-07-24T12:01:21;3.97;;;1.77;;
22359;SDS011;11347;52.030;4.690;2022-07-24T12:03:49;3.97;;;1.57;;
22359;SDS011;11347;52.030;4.690;2022-07-24T12:06:19;2.83;;;1.53;;
22359;SDS011;11347;52.030;4.690;2022-07-24T12:08:45;4.00;;;1.80;;
22359;SDS011;11347;52.030;4.690;2022-07-24T12:11:11;4.33;;;2.00;;
22359;SDS011;11347;52.030;4.690;2022-07-24T12:13:44;3.20;;;1.63;;
22359;SDS011;11347;52.030;4.690;2022-07-24T12:16:09;2.13;;;1.60;;
22359;SDS011;11347;52.030;4.690;2022-07-24T12:18:35;2.77;;;1.70;;
22359;SDS011;11347;52.030;4.690;2022-07-24T12:21:01;4.67;;;1.80;;
22359;SDS011;11347;52.030;4.690;2022-07-24T12:23:28;3.37;;;1.70;;
22359;SDS011;11347;52.030;4.690;2022-07-24T12:25:54;3.20;;;1.80;;
22359;SDS011;11347;52.030;4.690;2022-07-24T12:28:20;5.27;;;1.63;;
22359;SDS011;11347;52.030;4.690;2022-07-24T12:30:50;3.13;;;1.80;;
22359;SDS011;11347;52.030;4.690;2022-07-24T12:35:55;2.33;;;1.67;;
22359;SDS011;11347;52.030;4.690;2022-07-24T12:41:16;2.70;;;1.80;;
22359;SDS011;11347;52.030;4.690;2022-07-24T12:43:47;3.13;;;1.63;;
22359;SDS011;11347;52.030;4.690;2022-07-24T12:46:23;3.07;;;1.70;;
22359;SDS011;11347;52.030;4.690;2022-07-24T12:51:26;2.00;;;1.40;;
22359;SDS011;11347;52.030;4.690;2022-07-24T12:54:07;4.00;;;1.70;;
22359;SDS011;11347;52.030;4.690;2022-07-24T12:56:33;5.10;;;1.83;;
22359;SDS011;11347;52.030;4.690;2022-07-24T12:59:00;2.90;;;1.90;;
22359;SDS011;11347;52.030;4.690;2022-07-24T13:01:28;2.97;;;1.83;;
22359;SDS011;11347;52.030;4.690;2022-07-24T13:04:10;3.27;;;1.50;;
22359;SDS011;11347;52.030;4.690;2022-07-24T13:06:39;3.47;;;1.70;;
22359;SDS011;11347;52.030;4.690;2022-07-24T13:09:08;3.03;;;1.60;;
22359;SDS011;11347;52.030;4.690;2022-07-24T13:11:35;4.23;;;1.90;;
22359;SDS011;11347;52.030;4.690;2022-07-24T13:14:02;4.20;;;1.73;;
22359;SDS011;11347;52.030;4.690;2022-07-24T13:16:29;3.20;;;1.80;;
22359;SDS011;11347;52.030;4.690;2022-07-24T13:18:56;2.17;;;1.70;;
22359;SDS011;11347;52.030;4.690;2022-07-24T13:21:22;4.37;;;1.53;;
22359;SDS011;11347;52.030;4.690;2022-07-24T13:23:48;2.70;;;1.60;;
22359;SDS011;11347;52.030;4.690;2022-07-24T13:26:13;2.47;;;1.60;;
22359;SDS011;11347;52.030;4.690;2022-07-24T13:28:39;2.80;;;1.70;;
22359;SDS011;11347;52.030;4.690;2022-07-24T13:31:05;3.50;;;1.70;;
22359;SDS011;11347;52.030;4.690;2022-07-24T13:33:31;3.37;;;1.77;;
22359;SDS011;11347;52.030;4.690;2022-07-24T13:35:56;2.60;;;1.63;;
22359;SDS011;11347;52.030;4.690;2022-07-24T13:38:22;3.77;;;1.80;;
22359;SDS011;11347;52.030;4.690;2022-07-24T13:40:47;2.90;;;1.80;;
22359;SDS011;11347;52.030;4.690;2022-07-24T13:43:13;3.90;;;1.80;;
22359;SDS011;11347;52.030;4.690;2022-07-24T13:45:39;3.63;;;1.67;;
22359;SDS011;11347;52.030;4.690;2022-07-24T13:48:04;3.53;;;1.83;;
22359;SDS011;11347;52.030;4.690;2022-07-24T13:50:30;3.50;;;1.70;;
22359;SDS011;11347;52.030;4.690;2022-07-24T13:52:55;3.00;;;1.80;;
22359;SDS011;11347;52.030;4.690;2022-07-24T13:55:21;3.37;;;2.07;;
22359;SDS011;11347;52.030;4.690;2022-07-24T13:57:47;3.30;;;1.67;;
22359;SDS011;11347;52.030;4.690;2022-07-24T14:00:12;2.23;;;1.60;;
22359;SDS011;11347;52.030;4.690;2022-07-24T14:02:38;3.60;;;1.60;;
22359;SDS011;11347;52.030;4.690;2022-07-24T14:05:04;4.43;;;1.80;;
22359;SDS011;11347;52.030;4.690;2022-07-24T14:07:30;1.97;;;1.67;;
22359;SDS011;11347;52.030;4.690;2022-07-24T14:09:56;3.03;;;1.77;;
22359;SDS011;11347;52.030;4.690;2022-07-24T14:12:21;2.30;;;1.50;;
22359;SDS011;11347;52.030;4.690;2022-07-24T14:14:47;1.87;;;1.60;;
22359;SDS011;11347;52.030;4.690;2022-07-24T14:17:12;3.33;;;1.67;;
22359;SDS011;11347;52.030;4.690;2022-07-24T14:19:38;2.60;;;1.97;;
22359;SDS011;11347;52.030;4.690;2022-07-24T14:22:04;2.20;;;1.47;;
22359;SDS011;11347;52.030;4.690;2022-07-24T14:24:30;2.13;;;1.60;;
22359;SDS011;11347;52.030;4.690;2022-07-24T14:26:55;2.50;;;1.53;;
22359;SDS011;11347;52.030;4.690;2022-07-24T14:29:22;3.13;;;1.80;;
22359;SDS011;11347;52.030;4.690;2022-07-24T14:31:48;2.33;;;1.63;;
22359;SDS011;11347;52.030;4.690;2022-07-24T14:34:14;2.60;;;1.60;;
22359;SDS011;11347;52.030;4.690;2022-07-24T14:36:40;2.63;;;1.80;;
22359;SDS011;11347;52.030;4.690;2022-07-24T14:39:06;4.27;;;1.80;;
22359;SDS011;11347;52.030;4.690;2022-07-24T14:41:32;4.33;;;1.80;;
22359;SDS011;11347;52.030;4.690;2022-07-24T14:43:58;4.63;;;1.73;;
22359;SDS011;11347;52.030;4.690;2022-07-24T14:46:23;4.43;;;1.60;;
22359;SDS011;11347;52.030;4.690;2022-07-24T14:48:49;3.30;;;1.60;;
22359;SDS011;11347;52.030;4.690;2022-07-24T14:51:14;2.70;;;1.73;;
22359;SDS011;11347;52.030;4.690;2022-07-24T14:53:40;3.27;;;1.70;;
22359;SDS011;11347;52.030;4.690;2022-07-24T14:56:06;3.47;;;1.60;;
22359;SDS011;11347;52.030;4.690;2022-07-24T14:58:31;5.33;;;1.87;;
22359;SDS011;11347;52.030;4.690;2022-07-24T15:00:57;3.47;;;1.63;;
22359;SDS011;11347;52.030;4.690;2022-07-24T15:03:22;2.37;;;1.70;;
22359;SDS011;11347;52.030;4.690;2022-07-24T15:05:48;4.00;;;2.00;;
22359;SDS011;11347;52.030;4.690;2022-07-24T15:08:14;4.70;;;1.80;;
22359;SDS011;11347;52.030;4.690;2022-07-24T15:10:39;2.57;;;1.63;;
22359;SDS011;11347;52.030;4.690;2022-07-24T15:13:05;3.77;;;1.87;;
22359;SDS011;11347;52.030;4.690;2022-07-24T15:15:30;2.93;;;1.80;;
22359;SDS011;11347;52.030;4.690;2022-07-24T15:17:56;3.73;;;1.90;;
22359;SDS011;11347;52.030;4.690;2022-07-24T15:20:22;3.23;;;1.60;;
22359;SDS011;11347;52.030;4.690;2022-07-24T15:22:47;2.73;;;1.90;;
22359;SDS011;11347;52.030;4.690;2022-07-24T15:25:13;2.53;;;1.67;;
22359;SDS011;11347;52.030;4.690;2022-07-24T15:27:38;2.40;;;1.70;;
22359;SDS011;11347;52.030;4.690;2022-07-24T15:30:04;2.97;;;1.90;;